Tiempo atmosférico en la estación meteorológica de Coll De Nargó, Lleida (603 m.)



Fecha
DESCASC
Temp. máxima en grados centígrados (hora)
DESCASC
Temp. mínima en grados centígrados (hora)
DESCASC
Temp. media en grados centígrados
DESCASC
Racha de viento máxima en m/sg (hora)
DESCASC
Velocidad máxima media en intervalos de 10 minutos(hora)
DESCASC
Precipitaciones diarias en mm
DESCASC
Precipitaciones de 00:00 a 06:00 en mm
DESCASC
Precipitaciones de 06:00 a 12:00 en mm
DESCASC
Precipitaciones de 12:00 a 18:00 en mm
DESCASC
Precipitaciones de 18:00 a 24:00 en mm
DESCASC
13-01-2021 3.6 (12:30) -2.9 (00:10) 0.3 14.17 (15:00) 11.39 (15:00) 0 0 0 0 0
12-01-2021 4.8 (12:20) -6.6 (08:00) -0.9 12.78 (16:10) 10.83 (16:10) 0.2 0 0 0.2 0
11-01-2021 5.6 (12:00) -5 (23:50) 0.3 10.83 (14:50) 8.89 (15:40) 1 0 0.2 0.8 0
10-01-2021 3.4 (15:50) -0.6 (21:40) 1.4 9.44 (18:30) 7.5 (18:30) 11.2 2.6 3.4 5.2 0
09-01-2021 2.8 (15:40) -1.9 (-00:0) 0.4 4.72 (23:59) 1.94 (23:59) 11 0 0 5.6 5.4
08-01-2021 6.7 (13:20) -7.4 (-00:0) -0.4 10.28 (18:40) 8.33 (18:40) 0 0 0 0 0
07-01-2021 1 (14:50) -7.9 (-00:0) -3.5 6.94 (18:10) 5 (18:10) 0 0 0 0 0
06-01-2021 5.9 (14:10) -9.3 (-00:0) -1.7 13.61 (16:30) 10.83 (16:30) 0 0 0 0 0
05-01-2021 6.8 (14:00) -7.8 (-00:0) -0.5 15.28 (16:10) 12.5 (16:00) 0 0 0 0 0
04-01-2021 7 (14:10) -7.5 (-00:0) -0.3 9.17 (15:40) 6.39 (14:20) 0 0 0 0 0
03-01-2021 5.1 (15:00) -5 (-00:0) 0 13.89 (11:40) 11.67 (11:40) 0 0 0 0 0
02-01-2021 4.8 (19:00) -5.3 (-00:0) -0.3 9.44 (18:50) 5.83 (18:50) 0.2 0 0.2 0 0
01-01-2021 12 (13:50) -1.7 (-00:0) 5.1 12.5 (16:10) 9.72 (15:40) 0.4 0.2 0 0 0.2
31-12-2020 7.8 (12:20) -5.1 (-00:0) 1.4 12.22 (15:10) 8.89 (15:10) 0.4 0 0 0 0.4
30-12-2020 7.2 (15:40) -5.2 (-00:0) 1 15.28 (13:40) 12.22 (13:40) 0 0 0 0 0
29-12-2020 8.7 (15:30) -2.9 (-00:0) 2.9 9.44 (04:30) 5.83 (04:20) 0 0 0 0 0
28-12-2020 8.3 (13:10) 0.6 (00:00) 4.5 10.83 (21:30) 5.83 (18:40) 0.6 0.6 0 0 0
27-12-2020 1.9 (12:20) -5.6 (-00:0) -1.8 8.61 (16:50) 6.39 (16:40) 0 0 0 0 0
26-12-2020 12.5 (13:00) -3.3 (-00:0) 4.6 20.28 (04:20) 11.11 (14:20) 0 0 0 0 0
25-12-2020 6.7 (12:40) -3.2 (-00:0) 1.7 23.89 (12:30) 11.39 (12:30) 0 0 0 0 0
24-12-2020 5.7 (12:20) -1 (-00:0) 2.3 13.61 (14:50) 10.56 (14:50) 0.2 0 0.2 0 0
23-12-2020 15.6 (15:10) 2.1 (00:00) 8.9 10.28 (17:10) 7.5 (18:10) 0.2 0.2 0 0 0
22-12-2020 18.3 (14:50) 0.2 (00:00) 9.2 4.72 (16:30) 3.61 (16:40) 0 0 0 0 0
21-12-2020 13.8 (13:00) 1.5 (00:00) 7.7 8.89 (14:30) 7.5 (14:50) 0.2 0 0.2 0 0
20-12-2020 10.6 (13:20) 5.5 (00:00) 8.1 12.5 (14:20) 10.28 (14:40) 1.4 1.4 0 0 0
19-12-2020 15.1 (12:40) 2.4 (00:00) 8.8 8.33 (23:40) 5.56 (16:50) 0 0 0 0 0
18-12-2020 15 (14:00) -0.8 (-00:0) 7.1 2.78 (04:50) 2.22 (03:00) 0 0 0 0 0
17-12-2020 14.4 (15:30) -2.3 (-00:0) 6 3.61 (06:40) 2.22 (00:10) 0.2 0 0.2 0 0

Gráficas

Temp. máximas Temp. mínimas Temp. medias Precipitaciones Rachas de viento máximas Velocidades máximas media en intervalos de 10 minutos

Datos horarios

Fecha y hora oficial Temperatura (ºC) Velocidad del viento (km/h) Dirección del viento Racha (km/h) Dirección de racha Precipitación (mm) Presión (hPa) Tendencia (hPa) Humedad (%)
2021-01-15 23:00:00 8.3 35 Norte 73 Norte 0 -- -- 36
2021-01-15 22:00:00 8.1 26 Norte 68 Norte 0 -- -- 37
2021-01-15 21:00:00 7.8 36 Nordeste 60 Nordeste 0 -- -- 38
2021-01-15 20:00:00 8.1 32 Norte 61 Norte 0 -- -- 35
2021-01-15 19:00:00 8.1 36 Norte 55 Norte 0 -- -- 36
2021-01-15 18:00:00 7.3 13 Norte 36 Norte 0 -- -- 44
2021-01-15 17:00:00 9.2 24 Norte 40 Nordeste 0 -- -- 34
2021-01-15 16:00:00 4.2 10 Sur 35 Noroeste 0 -- -- 72
2021-01-15 15:00:00 3.4 20 Sur 46 Sur 0 -- -- 80
2021-01-15 14:00:00 3.9 24 Sur 42 Sur 0 -- -- 78
2021-01-15 13:00:00 5.2 12 Sur 41 Norte 0 -- -- 65
2021-01-15 12:00:00 2.3 17 Sur 41 Sur 0 -- -- 87
2021-01-15 11:00:00 0.1 31 Sur 51 Sur 0 -- -- 99
2021-01-15 10:00:00 -1.4 32 Sur 47 Sur 0 -- -- 99
2021-01-15 09:00:00 -1.3 14 Sur 31 Sur 0 -- -- 99
2021-01-15 08:00:00 -0.6 11 Sur 41 Norte 0 -- -- 95
2021-01-15 07:00:00 3.8 33 Norte 61 Norte 0 -- -- 93
2021-01-15 06:00:00 -1.6 0 Calma -- -- 0 -- -- 100
2021-01-15 05:00:00 -1.6 0 Calma -- -- 0 -- -- 100
2021-01-15 04:00:00 -1.5 0 Calma -- -- 0 -- -- 100
2021-01-15 03:00:00 -1.3 0 Calma -- -- 0 -- -- 100
2021-01-15 02:00:00 -1.1 0 Calma -- -- 0 -- -- 100
2021-01-15 01:00:00 -1.2 0 Calma 21 Sur 0 -- -- 100
2021-01-15 00:00:00 -1.5 0 Calma -- -- 0 -- -- 100
2021-01-14 23:00:00 -1.1 0 Calma 24 Sur 0 -- -- 100
2021-01-14 22:00:00 -1 14 Sur 32 Sur 0 -- -- 100
2021-01-14 21:00:00 -1.4 7 Sur 13 Sur 0 -- -- 100
2021-01-14 20:00:00 -1.6 2 Sudeste 8 Nordeste 0 -- -- 100
2021-01-14 19:00:00 -1.1 3 Sur 29 Sur 0 -- -- 100
2021-01-14 18:00:00 -0.9 19 Sur 35 Sur 0 -- -- 99
2021-01-14 17:00:00 -0.5 33 Sur 51 Sur 0 -- -- 97
2021-01-14 16:00:00 1 37 Sur 49 Sur 0 -- -- 90
2021-01-14 15:00:00 2.4 38 Sur 47 Sur 0 -- -- 84
2021-01-14 14:00:00 3 36 Sur 42 Sur 0 -- -- 80
2021-01-14 13:00:00 4.3 18 Sur 25 Sur 0 -- -- 73
2021-01-14 12:00:00 5.6 3 Norte 5 Norte 0 -- -- 89
2021-01-14 11:00:00 0.2 0 Calma 2 Nordeste 0 -- -- 97
2021-01-14 10:00:00 -4.2 0 Calma -- -- 0 -- -- 100
2021-01-14 09:00:00 -4.1 0 Calma -- -- 0 -- -- 99
2021-01-14 08:00:00 -5.2 0 Calma -- -- 0 -- -- 98
2021-01-14 07:00:00 -5.3 0 Calma -- -- 0 -- -- 99
2021-01-14 06:00:00 -4.7 0 Calma -- -- 0 -- -- 99
2021-01-14 05:00:00 -4.9 0 Calma -- -- 0 -- -- 100
2021-01-14 04:00:00 -4.4 0 Calma -- -- 0 -- -- 99
2021-01-14 03:00:00 -3.6 0 Calma -- -- 0 -- -- 99
2021-01-14 02:00:00 -2.4 0 Calma -- -- 0 -- -- 100
2021-01-14 01:00:00 -2 0 Calma -- -- 0 -- -- 100
2021-01-14 00:00:00 -1.8 0 Calma 12 Norte 0 -- -- 100
2021-01-13 23:00:00 -1.7 5 Norte 8 Norte 0 -- -- 100
2021-01-13 22:00:00 -1.4 5 Norte 10 Norte 0 -- -- 100
2021-01-13 21:00:00 -1.2 4 Noroeste 8 Noroeste 0 -- -- 100
2021-01-13 20:00:00 -1 2 Norte 11 Sur 0 -- -- 99
2021-01-13 19:00:00 -0.7 5 Sur 26 Sur 0 -- -- 99
2021-01-13 18:00:00 -0.4 21 Sur 35 Sur 0 -- -- 98
2021-01-13 17:00:00 0 26 Sur 47 Sur 0 -- -- 96
2021-01-13 16:00:00 1 37 Sur 51 Sur 0 -- -- 91
2021-01-13 15:00:00 2.5 41 Sur 51 Sur 0 -- -- 85
2021-01-13 14:00:00 2.8 37 Sur 47 Sur 0 -- -- 83
2021-01-13 13:00:00 3 29 Sur 34 Sur 0 -- -- 81
2021-01-13 12:00:00 1.3 9 Sur 15 Sur 0 -- -- 97
2021-01-13 11:00:00 -1.3 0 Calma 5 Norte 0 -- -- 100
2021-01-13 10:00:00 -2.6 3 Norte 6 Norte 0 -- -- 99
2021-01-13 09:00:00 -2.7 3 Norte 8 Norte 0 -- -- 100
2021-01-13 08:00:00 -2.7 5 Norte 8 Norte 0 -- -- 100
2021-01-13 07:00:00 -2.5 4 Norte 10 Norte 0 -- -- 100
2021-01-13 06:00:00 -2.5 4 Norte 9 Norte 0 -- -- 100
2021-01-13 05:00:00 -2.4 0 Calma 5 Norte 0 -- -- 100
2021-01-13 04:00:00 -2.4 0 Calma 10 Sur 0 -- -- 100
2021-01-13 03:00:00 -2.1 4 Sur 24 Sur 0 -- -- 100
2021-01-13 02:00:00 -1.8 14 Sudeste 24 Sur 0 -- -- 100
2021-01-13 01:00:00 -2.3 5 Sur 15 Sur 0 -- -- 100
2021-01-13 00:00:00 -2.8 3 Norte 5 Norte 0 -- -- 100
2021-01-12 23:00:00 -2.5 0 Calma 6 Norte 0 -- -- 100
2021-01-12 22:00:00 -2.4 3 Norte 18 Sur 0 -- -- 99
2021-01-12 21:00:00 -2.1 17 Sur 31 Sur 0 -- -- 99
2021-01-12 20:00:00 -2.1 8 Sur 24 Sur 0 -- -- 99
2021-01-12 19:00:00 -2.1 19 Sur 31 Sur 0 -- -- 98
2021-01-12 18:00:00 -1.9 25 Sur 37 Sur 0 -- -- 97
2021-01-12 17:00:00 -1.5 31 Sur 46 Sur 0 -- -- 94
2021-01-12 16:00:00 -0.2 37 Sur 45 Sur 0 -- -- 89
2021-01-12 15:00:00 0 34 Sur 42 Sur 0.2 -- -- 87
2021-01-12 14:00:00 -0.3 35 Sur 42 Sur 0 -- -- 87
2021-01-12 13:00:00 2.4 22 Sur 27 Sur 0 -- -- 76
2021-01-12 12:00:00 3.2 4 Norte 7 Nordeste 0 -- -- 73
2021-01-12 11:00:00 -1 2 Norte 11 Norte 0 -- -- 95
2021-01-12 10:00:00 -5.8 6 Norte 11 Noroeste 0 -- -- 98
2021-01-12 09:00:00 -6.1 4 Norte 8 Nordeste 0 -- -- 98
2021-01-12 08:00:00 -6.6 6 Nordeste 8 Norte 0 -- -- 97
2021-01-12 07:00:00 -6 5 Norte 9 Norte 0 -- -- 97
2021-01-12 06:00:00 -5.8 0 Calma -- -- 0 -- -- 98
2021-01-12 05:00:00 -5.9 0 Calma -- -- 0 -- -- 98
2021-01-12 04:00:00 -5.6 0 Calma -- -- 0 -- -- 99
2021-01-12 03:00:00 -4.5 0 Calma -- -- 0 -- -- 100
2021-01-12 02:00:00 -5.3 0 Calma -- -- 0 -- -- 98
2021-01-12 01:00:00 -4.9 0 Calma -- -- 0 -- -- 99
2021-01-12 00:00:00 -4.5 0 Calma -- -- 0 -- -- 100
2021-01-11 23:00:00 -4.1 0 Calma 8 Nordeste 0 -- -- 99
2021-01-11 22:00:00 -3.9 5 Norte 11 Nordeste 0 -- -- 99
2021-01-11 21:00:00 -3.3 5 Norte 8 Norte 0 -- -- 100
2021-01-11 20:00:00 -3 0 Calma 4 Norte 0 -- -- 100
2021-01-11 19:00:00 -2.3 0 Calma 6 Sur 0 -- -- 100
2021-01-11 18:00:00 -1.9 8 Sur 22 Sur 0 -- -- 98
2021-01-11 17:00:00 -1.4 18 Sur 35 Sur 0 -- -- 97
2021-01-11 16:00:00 -0.3 30 Sur 38 Sur 0 -- -- 93
2021-01-11 15:00:00 1.2 30 Sur 39 Sur 0 -- -- 87
2021-01-11 14:00:00 1.8 28 Sur 36 Sur 0.2 -- -- 86
2021-01-11 13:00:00 2.2 22 Sur 27 Sur 0.6 -- -- 86
2021-01-11 12:00:00 5.6 3 Este 11 Sur 0.2 -- -- 81
2021-01-11 11:00:00 0.3 0 Calma -- -- 0 -- -- 99
2021-01-11 10:00:00 -3.3 0 Calma -- -- 0 -- -- 100
2021-01-11 09:00:00 -3.2 0 Calma -- -- 0 -- -- 100
2021-01-11 08:00:00 -2.4 0 Calma -- -- 0 -- -- 100
2021-01-11 07:00:00 -2.4 0 Calma -- -- 0 -- -- 100
2021-01-11 06:00:00 -1.4 0 Calma -- -- 0 -- -- 100
2021-01-11 05:00:00 -0.7 0 Calma -- -- 0 -- -- 100
2021-01-11 04:00:00 -0.7 0 Calma -- -- 0 -- -- 100
2021-01-11 03:00:00 -0.7 0 Calma -- -- 0 -- -- 100
2021-01-11 02:00:00 -0.6 0 Calma -- -- 0 -- -- 100
2021-01-11 01:00:00 -0.6 0 Calma -- -- 0 -- -- 100
2021-01-11 00:00:00 -0.6 0 Calma 23 Sur 0 -- -- 100
2021-01-10 23:00:00 -0.6 16 Sur 23 Sur 0 -- -- 100
2021-01-10 22:00:00 -0.6 17 Sur 26 Sur 0 -- -- 100
2021-01-10 21:00:00 -0.4 19 Sur 27 Sur 0 -- -- 100
2021-01-10 20:00:00 -0.4 22 Sur 33 Sur 0 -- -- 100
2021-01-10 19:00:00 -0.2 24 Sur 34 Sur 0 -- -- 100
2021-01-10 18:00:00 0.2 23 Sur 30 Sur 0.4 -- -- 100
2021-01-10 17:00:00 1.2 11 Sur 20 Sur 0.4 -- -- 98
2021-01-10 16:00:00 3.4 3 Nordeste 8 Nordeste 0.8 -- -- 96
2021-01-10 15:00:00 3.1 3 Norte 8 Nordeste 1.2 -- -- 98
2021-01-10 14:00:00 2.9 3 Nordeste 8 Norte 1.2 -- -- 99
2021-01-10 13:00:00 2.2 4 Nordeste 8 Nordeste 1.2 -- -- 99
2021-01-10 12:00:00 1.6 4 Norte 7 Norte 1 -- -- 99
2021-01-10 11:00:00 1 4 Norte 8 Norte 1 -- -- 100
2021-01-10 10:00:00 0.5 3 Norte 10 Noroeste 0.4 -- -- 100
2021-01-10 09:00:00 0.1 4 Norte 9 Noroeste 0.2 -- -- 100
2021-01-10 08:00:00 0.2 3 Norte 11 Norte 0.4 -- -- 100
2021-01-10 07:00:00 0.2 5 Norte 10 Nordeste 0.4 -- -- 100
2021-01-10 06:00:00 0.2 3 Norte 8 Nordeste 0.6 -- -- 99
2021-01-10 05:00:00 0.5 4 Norte 10 Noroeste 0.4 -- -- 99
2021-01-10 04:00:00 1 4 Norte 13 Norte 0.4 -- -- 96
2021-01-10 03:00:00 1.1 3 Norte 10 Norte 0.4 -- -- 95
2021-01-10 02:00:00 1.5 4 Noroeste 21 Noroeste 0.4 -- -- 94
2021-01-10 01:00:00 1.5 0 Calma 27 Nordeste 0.4 -- -- 95
2021-01-10 00:00:00 1.3 7 Norte 17 Nordeste 0.6 -- -- 96
2021-01-09 23:00:00 1.4 5 Norte 12 Nordeste 0.6 -- -- 98
2021-01-09 22:00:00 0.8 4 Norte 13 Norte 0.6 -- -- 100
2021-01-09 21:00:00 0.3 3 Noroeste 6 Noroeste 1 -- -- 99
2021-01-09 20:00:00 0.1 3 Noroeste 6 Noroeste 0.6 -- -- 98
2021-01-09 19:00:00 0.5 0 Calma 12 Norte 2 -- -- 97
2021-01-09 18:00:00 2.4 4 Sudoeste 12 Norte 0.8 -- -- 91
2021-01-09 17:00:00 2 5 Noroeste 10 Norte 0.8 -- -- 95
2021-01-09 16:00:00 2.4 3 Norte 8 Norte 1.2 -- -- 95
2021-01-09 15:00:00 1.8 4 Norte 15 Norte 1 -- -- 97
2021-01-09 14:00:00 1.9 3 Oeste 9 Norte 1.4 -- -- 98
2021-01-09 13:00:00 1.1 3 Noroeste 6 Noroeste 0.4 -- -- 98
2021-01-09 12:00:00 0.4 2 Norte 6 Noroeste 0 -- -- 99
2021-01-09 11:00:00 0.3 3 Noroeste 6 Noroeste 0 -- -- 98
2021-01-09 10:00:00 0.3 2 Noroeste 15 Noroeste 0 -- -- 99
2021-01-09 09:00:00 -0.1 2 Norte 13 Noroeste 0 -- -- 99
2021-01-09 08:00:00 -0.5 3 Noroeste 9 Norte 0 -- -- 99
2021-01-09 07:00:00 -1.6 4 Norte 7 Norte 0 -- -- 98
2021-01-09 06:00:00 -1.8 4 Norte 6 Nordeste 0 -- -- 97
2021-01-09 05:00:00 -1.7 4 Norte 9 Nordeste 0 -- -- 94
2021-01-09 04:00:00 -0.9 5 Sur 9 Sur 0 -- -- 87
2021-01-09 03:00:00 -0.7 4 Sur 11 Sur -- -- -- 83
2021-01-09 02:00:00 -1.3 0 Calma 5 Norte 0 -- -- 85
2021-01-09 01:00:00 -1.5 0 Calma 7 Norte 0 -- -- 87
2021-01-09 00:00:00 -1.4 2 Sur 11 Oeste 0 -- -- 87
2021-01-08 23:00:00 -1.3 3 Noroeste 8 Sur 0 -- -- 87
2021-01-08 22:00:00 -1.3 5 Sur 16 Sur 0 -- -- 87
2021-01-08 21:00:00 -1 12 Sur 21 Sur 0 -- -- 85
2021-01-08 20:00:00 -0.9 13 Sudeste 31 Sur 0 -- -- 83
2021-01-08 19:00:00 -0.5 23 Sur 37 Sur 0 -- -- 80
2021-01-08 18:00:00 -0.1 20 Sur 33 Sur 0 -- -- 78
2021-01-08 17:00:00 0.9 27 Sur 34 Sur 0 -- -- 71
2021-01-08 16:00:00 1.8 8 Sur 31 Sur 0 -- -- 64
2021-01-08 15:00:00 2.4 21 Sur 29 Sur 0 -- -- 58
2021-01-08 14:00:00 2.7 23 Sur 31 Sudeste 0 -- -- 51
2021-01-08 13:00:00 4.2 4 Norte 7 Norte 0 -- -- 39
2021-01-08 12:00:00 1.8 4 Norte 8 Norte 0 -- -- 43
2021-01-08 11:00:00 -1.1 3 Nordeste 8 Norte 0 -- -- 56
2021-01-08 10:00:00 -6.3 2 Norte 5 Norte 0 -- -- 74
2021-01-08 09:00:00 -6.7 2 Norte 6 Norte 0 -- -- 77
2021-01-08 08:00:00 -6.2 2 Norte 5 Nordeste 0 -- -- 76
2021-01-08 07:00:00 -6.6 0 Calma 4 Norte 0 -- -- 82
2021-01-08 06:00:00 -5.9 0 Calma 5 Norte 0 -- -- 88
2021-01-08 05:00:00 -5.6 3 Norte 6 Norte 0 -- -- 87
2021-01-08 04:00:00 -5.9 3 Nordeste 8 Norte 0 -- -- 95
2021-01-08 03:00:00 -4.5 3 Noroeste 6 Norte 0 -- -- 93
2021-01-08 02:00:00 -4 3 Norte 5 Noroeste 0 -- -- 93
2021-01-08 01:00:00 -3.8 4 Norte 6 Norte 0 -- -- 94
2021-01-08 00:00:00 -3.5 2 Norte 3 Norte 0 -- -- 96
2021-01-07 23:00:00 -2.7 2 Sudoeste 3 Sudoeste 0 -- -- 94
2021-01-07 22:00:00 -2.3 3 Sur 21 Sur 0 -- -- 94
2021-01-07 21:00:00 -2.1 17 Sur 25 Sur 0 -- -- 94
2021-01-07 20:00:00 -1.8 15 Sur 19 Sur 0 -- -- 91
2021-01-07 19:00:00 -1.3 8 Sur 25 Sur 0 -- -- 86
2021-01-07 18:00:00 -0.3 10 Sur 18 Sur 0 -- -- 74
2021-01-07 17:00:00 0.2 0 Calma 5 Norte 0 -- -- 57
2021-01-07 16:00:00 0.6 4 Norte 6 Nordeste 0 -- -- 58
2021-01-07 15:00:00 0.8 3 Nordeste 6 Nordeste 0 -- -- 57
2021-01-07 14:00:00 0 3 Nordeste 7 Norte 0 -- -- 63
2021-01-07 13:00:00 -1 4 Norte 10 Norte 0 -- -- 71
2021-01-07 12:00:00 -2.3 4 Nordeste 7 Nordeste 0 -- -- 79
2021-01-07 11:00:00 -4 2 Norte 7 Norte 0 -- -- 87
2021-01-07 10:00:00 -5.8 3 Norte 6 Norte 0 -- -- 93
2021-01-07 09:00:00 -6.6 5 Norte 6 Norte 0 -- -- 94
2021-01-07 08:00:00 -7.4 3 Norte 8 Norte 0 -- -- 95
2021-01-07 07:00:00 -7.3 3 Norte 6 Norte 0 -- -- 94
2021-01-07 06:00:00 -7.4 4 Norte 6 Noroeste 0 -- -- 96
2021-01-07 05:00:00 -7 4 Norte 6 Norte 0 -- -- 96
2021-01-07 04:00:00 -7.7 3 Norte 6 Norte 0 -- -- 95
2021-01-07 03:00:00 -7.5 2 Norte 4 Norte 0 -- -- 96
2021-01-07 02:00:00 -7.6 3 Norte 5 Norte 0 -- -- 96
2021-01-07 01:00:00 -7.8 5 Norte 6 Norte 0 -- -- 97
2021-01-07 00:00:00 -7.2 4 Norte 6 Nordeste 0 -- -- 97
2021-01-06 23:00:00 -6.5 3 Norte 6 Nordeste 0 -- -- 97
2021-01-06 22:00:00 -5.7 3 Norte 4 Norte 0 -- -- 96
2021-01-06 21:00:00 -4.3 0 Calma 5 Sudoeste 0 -- -- 96
2021-01-06 20:00:00 -3.3 3 Sudoeste 19 Sur 0 -- -- 95
2021-01-06 19:00:00 -2.5 17 Sur 37 Sur 0 -- -- 92
2021-01-06 18:00:00 -1.7 31 Sur 48 Sur 0 -- -- 87
2021-01-06 17:00:00 -0.3 35 Sur 49 Sur 0 -- -- 79
2021-01-06 16:00:00 3 36 Sur 44 Sur 0 -- -- 61
2021-01-06 15:00:00 4.9 30 Sur 41 Sur 0 -- -- 55
2021-01-06 14:00:00 5.7 14 Sudeste 20 Sur 0 -- -- 47
2021-01-06 13:00:00 5.5 2 Nordeste 6 Nordeste 0 -- -- 42
2021-01-06 12:00:00 1.4 4 Norte 9 Nordeste 0 -- -- 57
2021-01-06 11:00:00 -3.4 4 Norte 6 Nordeste 0 -- -- 80
2021-01-06 10:00:00 -8.9 3 Norte 10 Nordeste 0 -- -- 94
2021-01-06 09:00:00 -8.1 3 Norte 7 Norte 0 -- -- 91
2021-01-06 08:00:00 -9 3 Norte 5 Norte 0 -- -- 94
2021-01-06 07:00:00 -8.5 3 Norte 6 Norte 0 -- -- 94
2021-01-06 06:00:00 -7.1 2 Norte 6 Norte 0 -- -- 94
2021-01-06 05:00:00 -7.4 2 Noroeste 6 Norte 0 -- -- 97
2021-01-06 04:00:00 -7.9 3 Norte 5 Norte 0 -- -- 96
2021-01-06 03:00:00 -7.3 3 Norte 5 Nordeste 0 -- -- 97
2021-01-06 02:00:00 -7.1 3 Norte 6 Norte 0 -- -- 97
2021-01-06 01:00:00 -7.1 3 Norte 5 Norte 0 -- -- 97
2021-01-06 00:00:00 -6.9 4 Norte 7 Norte 0 -- -- 97
2021-01-05 23:00:00 -6.3 5 Norte 7 Norte 0 -- -- 97
2021-01-05 22:00:00 -5.5 3 Nordeste 6 Nordeste 0 -- -- 97
2021-01-05 21:00:00 -5 5 Norte 6 Norte 0 -- -- 96
2021-01-05 20:00:00 -3.4 2 Norte 20 Sur 0 -- -- 95
2021-01-05 19:00:00 -2.5 15 Sur 30 Sur 0 -- -- 94
2021-01-05 18:00:00 -2.1 27 Sur 42 Sur 0 -- -- 92
2021-01-05 17:00:00 -1.6 35 Sur 55 Sur 0 -- -- 89
2021-01-05 16:00:00 0.3 45 Sur 54 Sur 0 -- -- 80
2021-01-05 15:00:00 3.8 37 Sur 46 Sur 0 -- -- 65
2021-01-05 14:00:00 6.8 4 Sur 19 Sur 0 -- -- 46
2021-01-05 13:00:00 4.5 7 Sur 13 Sur 0 -- -- 49
2021-01-05 12:00:00 2.5 3 Nordeste 8 Nordeste 0 -- -- 60
2021-01-05 11:00:00 -3 4 Norte 7 Norte 0 -- -- 84
2021-01-05 10:00:00 -5.9 3 Noroeste 6 Noroeste 0 -- -- 94
2021-01-05 09:00:00 -7.2 4 Norte 7 Noroeste 0 -- -- 95
2021-01-05 08:00:00 -7.6 5 Norte 7 Norte 0 -- -- 96
2021-01-05 07:00:00 -7.7 4 Norte 6 Noroeste 0 -- -- 95
2021-01-05 06:00:00 -6.3 4 Norte 6 Noroeste 0 -- -- 95
2021-01-05 05:00:00 -6.8 4 Norte 8 Norte 0 -- -- 97
2021-01-05 04:00:00 -6.2 3 Norte 6 Norte 0 -- -- 93
2021-01-05 03:00:00 -5.9 4 Norte 8 Norte 0 -- -- 94
2021-01-05 02:00:00 -5.3 3 Norte 4 Norte 0 -- -- 92
2021-01-05 01:00:00 -4 2 Norte 6 Norte 0 -- -- 89
2021-01-05 00:00:00 -4 2 Norte 6 Noroeste 0 -- -- 91
2021-01-04 23:00:00 -4.2 4 Norte 6 Norte 0 -- -- 90
2021-01-04 22:00:00 -3.5 6 Nordeste 7 Nordeste 0 -- -- 87
2021-01-04 21:00:00 -2.6 4 Norte 6 Norte 0 -- -- 83
2021-01-04 20:00:00 -1.4 5 Norte 7 Nordeste 0 -- -- 77
2021-01-04 19:00:00 0.9 3 Sudoeste 20 Sur 0 -- -- 67
2021-01-04 18:00:00 2 12 Sur 22 Sur 0 -- -- 63
2021-01-04 17:00:00 3.1 7 Sur 27 Oeste 0 -- -- 59
2021-01-04 16:00:00 3.7 14 Sur 33 Sur 0 -- -- 55
2021-01-04 15:00:00 6.7 10 Sur 31 Sur 0 -- -- 50
2021-01-04 14:00:00 6.7 17 Sur 27 Sur 0 -- -- 50
2021-01-04 13:00:00 5.2 14 Sur 26 Sur 0 -- -- 51
2021-01-04 12:00:00 3.3 5 Sudeste 9 Sudeste 0 -- -- 48
2021-01-04 11:00:00 -1.9 0 Calma 4 Norte 0 -- -- 74
2021-01-04 10:00:00 -7.1 3 Noroeste 6 Noroeste 0 -- -- 94
2021-01-04 09:00:00 -7 0 Calma 6 Norte 0 -- -- 96
2021-01-04 08:00:00 -7.3 4 Norte 6 Norte 0 -- -- 93
2021-01-04 07:00:00 -6.8 0 Calma 4 Nordeste 0 -- -- 92
2021-01-04 06:00:00 -6.5 3 Norte 6 Norte 0 -- -- 92
2021-01-04 05:00:00 -6 0 Calma 9 Noroeste 0 -- -- 92
2021-01-04 04:00:00 -6.5 5 Norte 7 Norte 0 -- -- 93
2021-01-04 03:00:00 -5.6 2 Sur 5 Sur 0 -- -- 91
2021-01-04 02:00:00 -5 2 Noroeste 7 Norte 0 -- -- 90
2021-01-04 01:00:00 -5.5 2 Norte 6 Norte 0 -- -- 90
2021-01-04 00:00:00 -5 6 Norte 8 Norte 0 -- -- 88
2021-01-03 23:00:00 -4.9 3 Norte 8 Norte 0 -- -- 90
2021-01-03 22:00:00 -3.6 3 Nordeste 4 Nordeste 0 -- -- 83
2021-01-03 21:00:00 -3.4 2 Nordeste 4 Norte 0 -- -- 83
2021-01-03 20:00:00 -2.4 3 Nordeste 9 Sudeste 0 -- -- 78
2021-01-03 19:00:00 -0.9 0 Calma 19 Sur 0 -- -- 72
2021-01-03 18:00:00 1 12 Sur 35 Sur 0 -- -- 68
2021-01-03 17:00:00 2.3 30 Sur 42 Sur 0 -- -- 61
2021-01-03 16:00:00 4.1 33 Sur 47 Sur 0 -- -- 55
2021-01-03 15:00:00 5.1 35 Sur 49 Sur 0 -- -- 52
2021-01-03 14:00:00 4.4 40 Sur 50 Sur 0 -- -- 55
2021-01-03 13:00:00 3.6 37 Sur 49 Sur 0 -- -- 58
2021-01-03 12:00:00 1.8 41 Sur 50 Sur 0 -- -- 62
2021-01-03 11:00:00 -0.3 32 Sur 40 Sur 0 -- -- 71
2021-01-03 10:00:00 -2.8 21 Sur 34 Sur 0 -- -- 80
2021-01-03 09:00:00 -1.2 12 Sur 17 Sur 0 -- -- 66
2021-01-03 08:00:00 1.2 6 Norte 22 Noroeste 0 -- -- 39
2021-01-03 07:00:00 2.2 13 Noroeste 41 Nordeste 0 -- -- 36
2021-01-03 06:00:00 2.5 18 Nordeste 45 Nordeste 0 -- -- 34
2021-01-03 05:00:00 2.7 21 Nordeste 40 Norte 0 -- -- 35
2021-01-03 04:00:00 1.8 17 Norte 32 Norte 0 -- -- 34
2021-01-03 03:00:00 -0.7 10 Norte 19 Norte 0 -- -- 49
2021-01-03 02:00:00 -1.2 8 Sur 22 Sur 0 -- -- 77
2021-01-03 01:00:00 -0.2 10 Sur 29 Nordeste 0 -- -- 73
2021-01-03 00:00:00 2.7 16 Norte 25 Norte 0 -- -- 31
2021-01-02 23:00:00 2.9 10 Norte 23 Noroeste 0 -- -- 27
2021-01-02 22:00:00 2.9 9 Norte 27 Norte 0 -- -- 27
2021-01-02 21:00:00 3.3 14 Norte 30 Nordeste 0 -- -- 29
2021-01-02 20:00:00 4 12 Norte 31 Norte 0 -- -- 27
2021-01-02 19:00:00 4.8 18 Norte 34 Norte 0 -- -- 27
2021-01-02 18:00:00 4 15 Norte 28 Norte 0 -- -- 36
2021-01-02 17:00:00 1.7 8 Sur 21 Sur 0 -- -- 76
2021-01-02 16:00:00 1.4 13 Sur 22 Sur 0 -- -- 83
2021-01-02 15:00:00 2 12 Sur 26 Sur 0 -- -- 80
2021-01-02 14:00:00 2.8 17 Sur 28 Sur 0 -- -- 78